sensor_id;sensor_type;location;lat;lon;timestamp;P1;durP1;ratioP1;P2;durP2;ratioP2
3867;SDS011;1949;48.152;11.528;2023-05-15T00:01:15;2.87;;;2.23;;
3867;SDS011;1949;48.152;11.528;2023-05-15T00:03:41;3.67;;;2.70;;
3867;SDS011;1949;48.152;11.528;2023-05-15T00:06:07;4.60;;;2.50;;
3867;SDS011;1949;48.152;11.528;2023-05-15T00:08:39;3.80;;;2.60;;
3867;SDS011;1949;48.152;11.528;2023-05-15T00:11:05;4.43;;;3.10;;
3867;SDS011;1949;48.152;11.528;2023-05-15T00:13:32;3.10;;;2.50;;
3867;SDS011;1949;48.152;11.528;2023-05-15T00:15:57;4.03;;;2.87;;
3867;SDS011;1949;48.152;11.528;2023-05-15T00:20:53;4.67;;;3.23;;
3867;SDS011;1949;48.152;11.528;2023-05-15T00:23:19;4.53;;;3.23;;
3867;SDS011;1949;48.152;11.528;2023-05-15T00:25:45;7.47;;;3.63;;
3867;SDS011;1949;48.152;11.528;2023-05-15T00:28:12;5.20;;;3.50;;
3867;SDS011;1949;48.152;11.528;2023-05-15T00:30:37;5.10;;;3.07;;
3867;SDS011;1949;48.152;11.528;2023-05-15T00:33:03;5.60;;;3.73;;
3867;SDS011;1949;48.152;11.528;2023-05-15T00:35:31;4.80;;;3.30;;
3867;SDS011;1949;48.152;11.528;2023-05-15T00:37:56;5.03;;;3.50;;
3867;SDS011;1949;48.152;11.528;2023-05-15T00:40:24;4.20;;;3.37;;
3867;SDS011;1949;48.152;11.528;2023-05-15T00:42:52;6.30;;;3.67;;
3867;SDS011;1949;48.152;11.528;2023-05-15T00:45:18;6.37;;;3.70;;
3867;SDS011;1949;48.152;11.528;2023-05-15T00:47:46;4.50;;;3.50;;
3867;SDS011;1949;48.152;11.528;2023-05-15T00:50:12;4.60;;;3.27;;
3867;SDS011;1949;48.152;11.528;2023-05-15T00:52:43;5.27;;;3.73;;
3867;SDS011;1949;48.152;11.528;2023-05-15T00:55:08;6.20;;;3.80;;
3867;SDS011;1949;48.152;11.528;2023-05-15T00:57:35;7.23;;;3.80;;
3867;SDS011;1949;48.152;11.528;2023-05-15T01:00:02;7.00;;;4.00;;
3867;SDS011;1949;48.152;11.528;2023-05-15T01:02:38;9.13;;;4.00;;
3867;SDS011;1949;48.152;11.528;2023-05-15T01:05:11;6.83;;;4.00;;
3867;SDS011;1949;48.152;11.528;2023-05-15T01:07:55;6.20;;;4.10;;
3867;SDS011;1949;48.152;11.528;2023-05-15T01:10:47;6.93;;;4.17;;
3867;SDS011;1949;48.152;11.528;2023-05-15T01:13:22;6.10;;;4.00;;
3867;SDS011;1949;48.152;11.528;2023-05-15T01:18:34;5.10;;;3.50;;
3867;SDS011;1949;48.152;11.528;2023-05-15T01:31:48;7.73;;;4.50;;
3867;SDS011;1949;48.152;11.528;2023-05-15T01:34:25;8.03;;;5.07;;
3867;SDS011;1949;48.152;11.528;2023-05-15T01:39:37;7.60;;;4.40;;
3867;SDS011;1949;48.152;11.528;2023-05-15T01:42:06;10.00;;;5.60;;
3867;SDS011;1949;48.152;11.528;2023-05-15T01:49:56;8.70;;;4.73;;
3867;SDS011;1949;48.152;11.528;2023-05-15T01:52:28;7.93;;;4.50;;
3867;SDS011;1949;48.152;11.528;2023-05-15T01:54:57;8.37;;;5.10;;
3867;SDS011;1949;48.152;11.528;2023-05-15T01:57:26;9.90;;;5.50;;
3867;SDS011;1949;48.152;11.528;2023-05-15T01:59:52;9.17;;;4.83;;
3867;SDS011;1949;48.152;11.528;2023-05-15T02:02:19;8.20;;;4.53;;
3867;SDS011;1949;48.152;11.528;2023-05-15T02:04:47;7.40;;;4.57;;
3867;SDS011;1949;48.152;11.528;2023-05-15T02:07:21;8.03;;;4.90;;
3867;SDS011;1949;48.152;11.528;2023-05-15T02:12:18;7.97;;;4.60;;
3867;SDS011;1949;48.152;11.528;2023-05-15T02:14:45;10.40;;;5.27;;
3867;SDS011;1949;48.152;11.528;2023-05-15T02:17:23;8.30;;;4.70;;
3867;SDS011;1949;48.152;11.528;2023-05-15T02:19:49;10.90;;;5.20;;
3867;SDS011;1949;48.152;11.528;2023-05-15T02:22:17;7.60;;;4.97;;
3867;SDS011;1949;48.152;11.528;2023-05-15T02:24:46;9.37;;;5.20;;
3867;SDS011;1949;48.152;11.528;2023-05-15T02:27:16;7.43;;;4.63;;
3867;SDS011;1949;48.152;11.528;2023-05-15T02:32:49;10.80;;;5.10;;
3867;SDS011;1949;48.152;11.528;2023-05-15T02:37:57;9.00;;;5.43;;
3867;SDS011;1949;48.152;11.528;2023-05-15T02:40:26;11.20;;;5.97;;
3867;SDS011;1949;48.152;11.528;2023-05-15T02:43:01;9.80;;;5.33;;
3867;SDS011;1949;48.152;11.528;2023-05-15T02:45:28;9.50;;;5.13;;
3867;SDS011;1949;48.152;11.528;2023-05-15T02:48:02;9.63;;;5.07;;
3867;SDS011;1949;48.152;11.528;2023-05-15T02:50:31;11.07;;;5.90;;
3867;SDS011;1949;48.152;11.528;2023-05-15T02:53:00;9.43;;;5.53;;
3867;SDS011;1949;48.152;11.528;2023-05-15T02:55:31;10.23;;;5.63;;
3867;SDS011;1949;48.152;11.528;2023-05-15T02:58:00;10.23;;;5.27;;
3867;SDS011;1949;48.152;11.528;2023-05-15T03:00:32;10.60;;;4.87;;
3867;SDS011;1949;48.152;11.528;2023-05-15T03:02:58;8.83;;;5.27;;
3867;SDS011;1949;48.152;11.528;2023-05-15T03:05:30;9.50;;;5.47;;
3867;SDS011;1949;48.152;11.528;2023-05-15T03:07:56;9.97;;;5.47;;
3867;SDS011;1949;48.152;11.528;2023-05-15T03:15:45;6.90;;;4.80;;
3867;SDS011;1949;48.152;11.528;2023-05-15T03:18:16;9.60;;;5.40;;
3867;SDS011;1949;48.152;11.528;2023-05-15T03:20:42;10.63;;;5.50;;
3867;SDS011;1949;48.152;11.528;2023-05-15T03:23:08;9.80;;;5.30;;
3867;SDS011;1949;48.152;11.528;2023-05-15T03:25:34;11.37;;;5.30;;
3867;SDS011;1949;48.152;11.528;2023-05-15T03:28:05;9.47;;;4.93;;
3867;SDS011;1949;48.152;11.528;2023-05-15T03:30:35;9.17;;;4.67;;
3867;SDS011;1949;48.152;11.528;2023-05-15T03:33:01;9.43;;;5.00;;
3867;SDS011;1949;48.152;11.528;2023-05-15T03:35:29;7.70;;;5.20;;
3867;SDS011;1949;48.152;11.528;2023-05-15T03:37:56;10.53;;;5.17;;
3867;SDS011;1949;48.152;11.528;2023-05-15T03:40:22;18.00;;;8.57;;
3867;SDS011;1949;48.152;11.528;2023-05-15T03:42:47;8.30;;;4.40;;
3867;SDS011;1949;48.152;11.528;2023-05-15T03:45:17;9.77;;;4.87;;
3867;SDS011;1949;48.152;11.528;2023-05-15T03:47:43;8.07;;;4.40;;
3867;SDS011;1949;48.152;11.528;2023-05-15T03:50:10;8.13;;;4.50;;
3867;SDS011;1949;48.152;11.528;2023-05-15T03:52:36;8.70;;;5.07;;
3867;SDS011;1949;48.152;11.528;2023-05-15T03:55:02;8.10;;;4.80;;
3867;SDS011;1949;48.152;11.528;2023-05-15T03:57:28;7.77;;;4.87;;
3867;SDS011;1949;48.152;11.528;2023-05-15T03:59:54;6.93;;;4.13;;
3867;SDS011;1949;48.152;11.528;2023-05-15T04:02:29;9.83;;;5.17;;
3867;SDS011;1949;48.152;11.528;2023-05-15T04:04:56;10.60;;;4.77;;
3867;SDS011;1949;48.152;11.528;2023-05-15T04:07:22;8.27;;;4.77;;
3867;SDS011;1949;48.152;11.528;2023-05-15T04:09:50;10.87;;;4.83;;
3867;SDS011;1949;48.152;11.528;2023-05-15T04:14:50;8.90;;;5.07;;
3867;SDS011;1949;48.152;11.528;2023-05-15T04:19:46;8.30;;;5.00;;
3867;SDS011;1949;48.152;11.528;2023-05-15T04:22:12;9.53;;;5.23;;
3867;SDS011;1949;48.152;11.528;2023-05-15T04:24:39;8.60;;;5.13;;
3867;SDS011;1949;48.152;11.528;2023-05-15T04:27:06;7.63;;;4.73;;
3867;SDS011;1949;48.152;11.528;2023-05-15T04:29:38;8.80;;;4.47;;
3867;SDS011;1949;48.152;11.528;2023-05-15T04:34:32;5.77;;;4.23;;
3867;SDS011;1949;48.152;11.528;2023-05-15T04:36:58;7.40;;;4.50;;
3867;SDS011;1949;48.152;11.528;2023-05-15T04:42:08;8.43;;;5.43;;
3867;SDS011;1949;48.152;11.528;2023-05-15T04:47:04;8.57;;;4.87;;
3867;SDS011;1949;48.152;11.528;2023-05-15T04:49:36;11.73;;;4.80;;
3867;SDS011;1949;48.152;11.528;2023-05-15T04:52:08;10.27;;;5.30;;
3867;SDS011;1949;48.152;11.528;2023-05-15T04:54:34;9.70;;;4.90;;
3867;SDS011;1949;48.152;11.528;2023-05-15T04:57:00;7.30;;;5.07;;
3867;SDS011;1949;48.152;11.528;2023-05-15T04:59:27;9.10;;;5.23;;
3867;SDS011;1949;48.152;11.528;2023-05-15T05:01:53;7.50;;;5.03;;
3867;SDS011;1949;48.152;11.528;2023-05-15T05:04:19;10.40;;;4.60;;
3867;SDS011;1949;48.152;11.528;2023-05-15T05:06:46;8.00;;;4.83;;
3867;SDS011;1949;48.152;11.528;2023-05-15T05:11:52;9.03;;;5.03;;
3867;SDS011;1949;48.152;11.528;2023-05-15T05:14:18;12.03;;;4.80;;
3867;SDS011;1949;48.152;11.528;2023-05-15T05:16:57;10.27;;;5.70;;
3867;SDS011;1949;48.152;11.528;2023-05-15T05:19:22;8.07;;;4.90;;
3867;SDS011;1949;48.152;11.528;2023-05-15T05:21:48;7.17;;;5.27;;
3867;SDS011;1949;48.152;11.528;2023-05-15T05:24:18;9.30;;;5.50;;
3867;SDS011;1949;48.152;11.528;2023-05-15T05:26:52;8.13;;;4.70;;
3867;SDS011;1949;48.152;11.528;2023-05-15T05:29:30;12.47;;;4.60;;
3867;SDS011;1949;48.152;11.528;2023-05-15T05:32:02;11.57;;;5.00;;
3867;SDS011;1949;48.152;11.528;2023-05-15T05:34:35;18.43;;;5.13;;
3867;SDS011;1949;48.152;11.528;2023-05-15T05:37:06;7.90;;;5.30;;
3867;SDS011;1949;48.152;11.528;2023-05-15T05:39:33;11.00;;;6.40;;
3867;SDS011;1949;48.152;11.528;2023-05-15T05:42:00;10.53;;;5.77;;
3867;SDS011;1949;48.152;11.528;2023-05-15T05:44:40;9.77;;;5.67;;
3867;SDS011;1949;48.152;11.528;2023-05-15T05:47:06;10.13;;;5.10;;
3867;SDS011;1949;48.152;11.528;2023-05-15T05:49:31;10.10;;;6.23;;
3867;SDS011;1949;48.152;11.528;2023-05-15T05:52:05;11.30;;;6.93;;
3867;SDS011;1949;48.152;11.528;2023-05-15T05:57:11;11.43;;;6.97;;
3867;SDS011;1949;48.152;11.528;2023-05-15T05:59:38;8.90;;;4.80;;
3867;SDS011;1949;48.152;11.528;2023-05-15T06:02:04;12.43;;;6.00;;
3867;SDS011;1949;48.152;11.528;2023-05-15T06:04:31;11.30;;;6.30;;
3867;SDS011;1949;48.152;11.528;2023-05-15T06:06:59;14.80;;;6.87;;
3867;SDS011;1949;48.152;11.528;2023-05-15T06:09:29;11.50;;;6.00;;
3867;SDS011;1949;48.152;11.528;2023-05-15T06:11:56;23.27;;;7.63;;
3867;SDS011;1949;48.152;11.528;2023-05-15T06:14:24;11.20;;;6.33;;
3867;SDS011;1949;48.152;11.528;2023-05-15T06:16:51;13.90;;;6.67;;
3867;SDS011;1949;48.152;11.528;2023-05-15T06:19:17;12.80;;;6.60;;
3867;SDS011;1949;48.152;11.528;2023-05-15T06:21:42;19.13;;;8.57;;
3867;SDS011;1949;48.152;11.528;2023-05-15T06:24:24;13.60;;;7.07;;
3867;SDS011;1949;48.152;11.528;2023-05-15T06:26:50;13.60;;;6.60;;
3867;SDS011;1949;48.152;11.528;2023-05-15T06:29:18;9.50;;;5.93;;
3867;SDS011;1949;48.152;11.528;2023-05-15T06:31:48;10.73;;;6.17;;
3867;SDS011;1949;48.152;11.528;2023-05-15T06:34:14;12.70;;;6.47;;
3867;SDS011;1949;48.152;11.528;2023-05-15T06:36:50;10.90;;;5.73;;
3867;SDS011;1949;48.152;11.528;2023-05-15T06:39:16;14.90;;;6.67;;
3867;SDS011;1949;48.152;11.528;2023-05-15T06:41:45;10.90;;;5.73;;
3867;SDS011;1949;48.152;11.528;2023-05-15T06:44:15;10.93;;;6.20;;
3867;SDS011;1949;48.152;11.528;2023-05-15T06:46:51;9.40;;;5.83;;
3867;SDS011;1949;48.152;11.528;2023-05-15T06:49:23;12.23;;;6.53;;
3867;SDS011;1949;48.152;11.528;2023-05-15T06:51:50;13.50;;;5.50;;
3867;SDS011;1949;48.152;11.528;2023-05-15T06:56:47;22.10;;;7.03;;
3867;SDS011;1949;48.152;11.528;2023-05-15T06:59:12;15.03;;;6.73;;
3867;SDS011;1949;48.152;11.528;2023-05-15T07:01:46;8.47;;;5.07;;
3867;SDS011;1949;48.152;11.528;2023-05-15T07:04:12;10.33;;;5.80;;
3867;SDS011;1949;48.152;11.528;2023-05-15T07:06:39;9.20;;;5.90;;
3867;SDS011;1949;48.152;11.528;2023-05-15T07:09:11;9.63;;;6.23;;
3867;SDS011;1949;48.152;11.528;2023-05-15T07:11:37;9.10;;;5.87;;
3867;SDS011;1949;48.152;11.528;2023-05-15T07:16:47;10.20;;;6.00;;
3867;SDS011;1949;48.152;11.528;2023-05-15T07:21:45;11.23;;;5.17;;
3867;SDS011;1949;48.152;11.528;2023-05-15T07:26:45;15.47;;;5.47;;
3867;SDS011;1949;48.152;11.528;2023-05-15T07:29:12;9.00;;;5.00;;
3867;SDS011;1949;48.152;11.528;2023-05-15T07:31:40;7.33;;;5.00;;
3867;SDS011;1949;48.152;11.528;2023-05-15T07:34:15;10.47;;;6.03;;
3867;SDS011;1949;48.152;11.528;2023-05-15T07:36:41;10.30;;;5.00;;
3867;SDS011;1949;48.152;11.528;2023-05-15T07:39:11;15.17;;;4.43;;
3867;SDS011;1949;48.152;11.528;2023-05-15T07:41:37;15.80;;;5.20;;
3867;SDS011;1949;48.152;11.528;2023-05-15T07:44:04;6.60;;;3.97;;
3867;SDS011;1949;48.152;11.528;2023-05-15T07:46:30;11.03;;;4.53;;
3867;SDS011;1949;48.152;11.528;2023-05-15T07:48:57;20.07;;;5.10;;
3867;SDS011;1949;48.152;11.528;2023-05-15T07:51:23;9.13;;;5.73;;
3867;SDS011;1949;48.152;11.528;2023-05-15T07:53:57;9.47;;;4.40;;
3867;SDS011;1949;48.152;11.528;2023-05-15T07:58:57;6.80;;;4.37;;
3867;SDS011;1949;48.152;11.528;2023-05-15T08:03:55;7.30;;;5.07;;
3867;SDS011;1949;48.152;11.528;2023-05-15T08:06:30;9.00;;;3.80;;
3867;SDS011;1949;48.152;11.528;2023-05-15T08:09:03;8.07;;;4.77;;
3867;SDS011;1949;48.152;11.528;2023-05-15T08:11:35;9.00;;;4.60;;
3867;SDS011;1949;48.152;11.528;2023-05-15T08:14:01;4.10;;;3.20;;
3867;SDS011;1949;48.152;11.528;2023-05-15T08:16:27;6.50;;;4.20;;
3867;SDS011;1949;48.152;11.528;2023-05-15T08:21:28;6.57;;;4.00;;
3867;SDS011;1949;48.152;11.528;2023-05-15T08:23:55;8.10;;;4.60;;
3867;SDS011;1949;48.152;11.528;2023-05-15T08:26:21;5.60;;;3.80;;
3867;SDS011;1949;48.152;11.528;2023-05-15T08:28:47;7.60;;;4.80;;
3867;SDS011;1949;48.152;11.528;2023-05-15T08:31:14;10.07;;;4.37;;
3867;SDS011;1949;48.152;11.528;2023-05-15T08:36:12;7.87;;;4.53;;
3867;SDS011;1949;48.152;11.528;2023-05-15T08:38:38;6.10;;;3.83;;
3867;SDS011;1949;48.152;11.528;2023-05-15T08:43:42;6.40;;;4.00;;
3867;SDS011;1949;48.152;11.528;2023-05-15T08:46:12;8.70;;;4.60;;
3867;SDS011;1949;48.152;11.528;2023-05-15T08:51:27;7.73;;;5.27;;
3867;SDS011;1949;48.152;11.528;2023-05-15T08:53:54;5.33;;;3.87;;
3867;SDS011;1949;48.152;11.528;2023-05-15T08:56:22;6.03;;;3.90;;
3867;SDS011;1949;48.152;11.528;2023-05-15T08:58:48;10.17;;;5.40;;
3867;SDS011;1949;48.152;11.528;2023-05-15T09:01:16;7.20;;;4.37;;
3867;SDS011;1949;48.152;11.528;2023-05-15T09:03:53;7.90;;;4.40;;
3867;SDS011;1949;48.152;11.528;2023-05-15T09:08:54;11.30;;;5.90;;
3867;SDS011;1949;48.152;11.528;2023-05-15T09:11:25;7.83;;;4.33;;
3867;SDS011;1949;48.152;11.528;2023-05-15T09:14:00;9.10;;;5.50;;
3867;SDS011;1949;48.152;11.528;2023-05-15T09:16:26;6.00;;;4.47;;
3867;SDS011;1949;48.152;11.528;2023-05-15T09:18:52;9.10;;;4.60;;
3867;SDS011;1949;48.152;11.528;2023-05-15T09:21:24;6.70;;;4.20;;
3867;SDS011;1949;48.152;11.528;2023-05-15T09:23:54;8.20;;;4.60;;
3867;SDS011;1949;48.152;11.528;2023-05-15T09:27:09;6.20;;;4.23;;
3867;SDS011;1949;48.152;11.528;2023-05-15T09:29:36;11.40;;;4.20;;
3867;SDS011;1949;48.152;11.528;2023-05-15T09:32:02;10.27;;;5.00;;
3867;SDS011;1949;48.152;11.528;2023-05-15T09:34:30;7.07;;;4.43;;
3867;SDS011;1949;48.152;11.528;2023-05-15T09:39:39;7.10;;;4.30;;
3867;SDS011;1949;48.152;11.528;2023-05-15T09:42:13;6.27;;;3.40;;
3867;SDS011;1949;48.152;11.528;2023-05-15T09:44:49;6.80;;;3.77;;
3867;SDS011;1949;48.152;11.528;2023-05-15T09:47:24;7.60;;;3.13;;
3867;SDS011;1949;48.152;11.528;2023-05-15T09:49:50;8.83;;;4.13;;
3867;SDS011;1949;48.152;11.528;2023-05-15T09:52:18;8.27;;;4.87;;
3867;SDS011;1949;48.152;11.528;2023-05-15T09:54:46;6.57;;;3.83;;
3867;SDS011;1949;48.152;11.528;2023-05-15T09:57:15;3.90;;;2.90;;
3867;SDS011;1949;48.152;11.528;2023-05-15T09:59:46;7.07;;;3.70;;
3867;SDS011;1949;48.152;11.528;2023-05-15T10:02:22;6.23;;;3.83;;
3867;SDS011;1949;48.152;11.528;2023-05-15T10:04:54;6.73;;;4.33;;
3867;SDS011;1949;48.152;11.528;2023-05-15T10:07:32;11.53;;;3.97;;
3867;SDS011;1949;48.152;11.528;2023-05-15T10:10:00;7.83;;;3.77;;
3867;SDS011;1949;48.152;11.528;2023-05-15T10:12:30;10.33;;;3.97;;
3867;SDS011;1949;48.152;11.528;2023-05-15T10:15:01;4.93;;;3.43;;
3867;SDS011;1949;48.152;11.528;2023-05-15T10:17:29;3.77;;;3.30;;
3867;SDS011;1949;48.152;11.528;2023-05-15T10:22:35;7.37;;;4.67;;
3867;SDS011;1949;48.152;11.528;2023-05-15T10:25:07;6.40;;;4.10;;
3867;SDS011;1949;48.152;11.528;2023-05-15T10:27:47;9.33;;;4.27;;
3867;SDS011;1949;48.152;11.528;2023-05-15T10:30:22;10.20;;;4.80;;
3867;SDS011;1949;48.152;11.528;2023-05-15T10:32:54;6.60;;;4.10;;
3867;SDS011;1949;48.152;11.528;2023-05-15T10:35:22;5.83;;;3.90;;
3867;SDS011;1949;48.152;11.528;2023-05-15T10:37:52;11.57;;;6.23;;
3867;SDS011;1949;48.152;11.528;2023-05-15T10:40:18;14.50;;;7.27;;
3867;SDS011;1949;48.152;11.528;2023-05-15T10:42:45;8.97;;;4.40;;
3867;SDS011;1949;48.152;11.528;2023-05-15T10:45:18;20.50;;;8.57;;
3867;SDS011;1949;48.152;11.528;2023-05-15T10:47:44;15.50;;;7.20;;
3867;SDS011;1949;48.152;11.528;2023-05-15T10:50:11;36.23;;;15.17;;
3867;SDS011;1949;48.152;11.528;2023-05-15T10:52:39;31.07;;;15.97;;
3867;SDS011;1949;48.152;11.528;2023-05-15T10:55:16;9.87;;;5.60;;
3867;SDS011;1949;48.152;11.528;2023-05-15T10:57:46;9.90;;;5.90;;
3867;SDS011;1949;48.152;11.528;2023-05-15T11:00:34;14.30;;;7.07;;
3867;SDS011;1949;48.152;11.528;2023-05-15T11:03:04;8.57;;;4.87;;
3867;SDS011;1949;48.152;11.528;2023-05-15T11:05:31;8.77;;;5.37;;
3867;SDS011;1949;48.152;11.528;2023-05-15T11:08:40;8.83;;;4.40;;
3867;SDS011;1949;48.152;11.528;2023-05-15T11:11:23;10.57;;;5.50;;
3867;SDS011;1949;48.152;11.528;2023-05-15T11:14:13;10.40;;;6.00;;
3867;SDS011;1949;48.152;11.528;2023-05-15T11:21:56;12.33;;;7.33;;
3867;SDS011;1949;48.152;11.528;2023-05-15T11:24:27;6.20;;;4.40;;
3867;SDS011;1949;48.152;11.528;2023-05-15T11:27:01;5.73;;;3.77;;
3867;SDS011;1949;48.152;11.528;2023-05-15T11:29:29;6.93;;;4.73;;
3867;SDS011;1949;48.152;11.528;2023-05-15T11:32:29;5.87;;;3.90;;
3867;SDS011;1949;48.152;11.528;2023-05-15T11:35:16;12.30;;;4.60;;
3867;SDS011;1949;48.152;11.528;2023-05-15T11:37:53;6.70;;;4.37;;
3867;SDS011;1949;48.152;11.528;2023-05-15T11:40:28;5.80;;;3.50;;
3867;SDS011;1949;48.152;11.528;2023-05-15T11:42:58;5.10;;;3.90;;
3867;SDS011;1949;48.152;11.528;2023-05-15T11:45:27;5.73;;;4.20;;
3867;SDS011;1949;48.152;11.528;2023-05-15T11:47:59;9.70;;;5.90;;
3867;SDS011;1949;48.152;11.528;2023-05-15T11:55:51;8.17;;;4.23;;
3867;SDS011;1949;48.152;11.528;2023-05-15T11:58:21;5.93;;;3.80;;
3867;SDS011;1949;48.152;11.528;2023-05-15T12:00:49;6.37;;;3.50;;
3867;SDS011;1949;48.152;11.528;2023-05-15T12:03:32;9.70;;;4.40;;
3867;SDS011;1949;48.152;11.528;2023-05-15T12:16:53;5.87;;;4.30;;
3867;SDS011;1949;48.152;11.528;2023-05-15T12:22:05;5.63;;;3.60;;
3867;SDS011;1949;48.152;11.528;2023-05-15T12:24:36;5.83;;;3.80;;
3867;SDS011;1949;48.152;11.528;2023-05-15T12:27:06;7.07;;;3.97;;
3867;SDS011;1949;48.152;11.528;2023-05-15T12:29:39;7.40;;;3.60;;
3867;SDS011;1949;48.152;11.528;2023-05-15T12:32:16;7.93;;;3.60;;
3867;SDS011;1949;48.152;11.528;2023-05-15T12:37:24;5.23;;;3.50;;
3867;SDS011;1949;48.152;11.528;2023-05-15T12:39:56;5.53;;;3.03;;
3867;SDS011;1949;48.152;11.528;2023-05-15T12:42:25;7.13;;;3.37;;
3867;SDS011;1949;48.152;11.528;2023-05-15T12:47:38;4.60;;;3.00;;
3867;SDS011;1949;48.152;11.528;2023-05-15T12:50:19;3.07;;;2.30;;
3867;SDS011;1949;48.152;11.528;2023-05-15T12:55:30;2.53;;;2.13;;
3867;SDS011;1949;48.152;11.528;2023-05-15T12:58:05;2.90;;;2.47;;
3867;SDS011;1949;48.152;11.528;2023-05-15T13:00:40;8.50;;;2.73;;
3867;SDS011;1949;48.152;11.528;2023-05-15T13:03:13;2.13;;;1.90;;
3867;SDS011;1949;48.152;11.528;2023-05-15T13:05:46;5.20;;;2.30;;
3867;SDS011;1949;48.152;11.528;2023-05-15T13:08:21;4.40;;;2.80;;
3867;SDS011;1949;48.152;11.528;2023-05-15T13:10:57;4.03;;;3.03;;
3867;SDS011;1949;48.152;11.528;2023-05-15T13:16:21;6.03;;;2.57;;
3867;SDS011;1949;48.152;11.528;2023-05-15T13:21:23;7.30;;;2.93;;
3867;SDS011;1949;48.152;11.528;2023-05-15T13:23:51;5.00;;;2.80;;
3867;SDS011;1949;48.152;11.528;2023-05-15T13:26:21;4.27;;;2.97;;
3867;SDS011;1949;48.152;11.528;2023-05-15T13:28:47;5.87;;;3.37;;
3867;SDS011;1949;48.152;11.528;2023-05-15T13:36:29;11.00;;;5.77;;
3867;SDS011;1949;48.152;11.528;2023-05-15T13:38:56;6.27;;;3.97;;
3867;SDS011;1949;48.152;11.528;2023-05-15T13:41:24;8.93;;;4.87;;
3867;SDS011;1949;48.152;11.528;2023-05-15T13:46:19;10.87;;;6.33;;
3867;SDS011;1949;48.152;11.528;2023-05-15T13:48:58;23.40;;;11.20;;
3867;SDS011;1949;48.152;11.528;2023-05-15T13:51:26;26.03;;;13.17;;
3867;SDS011;1949;48.152;11.528;2023-05-15T13:53:53;21.03;;;11.00;;
3867;SDS011;1949;48.152;11.528;2023-05-15T13:56:21;20.00;;;9.83;;
3867;SDS011;1949;48.152;11.528;2023-05-15T13:58:49;3.83;;;2.87;;
3867;SDS011;1949;48.152;11.528;2023-05-15T14:01:21;14.13;;;8.23;;
3867;SDS011;1949;48.152;11.528;2023-05-15T14:03:47;16.20;;;8.40;;
3867;SDS011;1949;48.152;11.528;2023-05-15T14:06:14;16.93;;;8.40;;
3867;SDS011;1949;48.152;11.528;2023-05-15T14:08:43;28.57;;;13.57;;
3867;SDS011;1949;48.152;11.528;2023-05-15T14:11:08;27.13;;;13.40;;
3867;SDS011;1949;48.152;11.528;2023-05-15T14:13:36;20.77;;;8.57;;
3867;SDS011;1949;48.152;11.528;2023-05-15T14:16:04;14.67;;;7.47;;
3867;SDS011;1949;48.152;11.528;2023-05-15T14:18:36;17.60;;;7.87;;
3867;SDS011;1949;48.152;11.528;2023-05-15T14:21:02;7.90;;;4.73;;
3867;SDS011;1949;48.152;11.528;2023-05-15T14:23:28;6.77;;;3.80;;
3867;SDS011;1949;48.152;11.528;2023-05-15T14:25:56;8.53;;;4.40;;
3867;SDS011;1949;48.152;11.528;2023-05-15T14:28:21;10.77;;;4.90;;
3867;SDS011;1949;48.152;11.528;2023-05-15T14:30:48;6.87;;;3.60;;
3867;SDS011;1949;48.152;11.528;2023-05-15T14:33:14;14.03;;;5.20;;
3867;SDS011;1949;48.152;11.528;2023-05-15T14:35:40;7.30;;;3.40;;
3867;SDS011;1949;48.152;11.528;2023-05-15T14:38:05;4.07;;;2.60;;
3867;SDS011;1949;48.152;11.528;2023-05-15T14:40:37;4.40;;;2.80;;
3867;SDS011;1949;48.152;11.528;2023-05-15T14:43:04;3.10;;;2.30;;
3867;SDS011;1949;48.152;11.528;2023-05-15T14:45:31;6.40;;;2.67;;
3867;SDS011;1949;48.152;11.528;2023-05-15T14:47:57;3.10;;;2.60;;
3867;SDS011;1949;48.152;11.528;2023-05-15T14:50:24;3.67;;;2.17;;
3867;SDS011;1949;48.152;11.528;2023-05-15T14:53:01;3.47;;;2.47;;
3867;SDS011;1949;48.152;11.528;2023-05-15T14:55:27;3.30;;;1.93;;
3867;SDS011;1949;48.152;11.528;2023-05-15T14:57:56;3.70;;;2.60;;
3867;SDS011;1949;48.152;11.528;2023-05-15T15:00:24;7.00;;;2.90;;
3867;SDS011;1949;48.152;11.528;2023-05-15T15:02:58;6.37;;;3.13;;
3867;SDS011;1949;48.152;11.528;2023-05-15T15:05:26;4.90;;;3.27;;
3867;SDS011;1949;48.152;11.528;2023-05-15T15:10:34;6.00;;;3.13;;
3867;SDS011;1949;48.152;11.528;2023-05-15T15:13:07;10.60;;;3.10;;
3867;SDS011;1949;48.152;11.528;2023-05-15T15:19:02;7.43;;;2.90;;
3867;SDS011;1949;48.152;11.528;2023-05-15T15:21:28;7.53;;;3.20;;
3867;SDS011;1949;48.152;11.528;2023-05-15T15:24:02;4.73;;;3.27;;
3867;SDS011;1949;48.152;11.528;2023-05-15T15:26:30;3.23;;;2.90;;
3867;SDS011;1949;48.152;11.528;2023-05-15T15:29:06;4.30;;;3.10;;
3867;SDS011;1949;48.152;11.528;2023-05-15T15:36:37;3.40;;;2.90;;
3867;SDS011;1949;48.152;11.528;2023-05-15T15:44:54;3.73;;;2.60;;
3867;SDS011;1949;48.152;11.528;2023-05-15T15:47:20;4.23;;;2.80;;
3867;SDS011;1949;48.152;11.528;2023-05-15T15:49:47;6.80;;;2.60;;
3867;SDS011;1949;48.152;11.528;2023-05-15T15:52:15;6.23;;;3.30;;
3867;SDS011;1949;48.152;11.528;2023-05-15T15:54:42;9.43;;;3.17;;
3867;SDS011;1949;48.152;11.528;2023-05-15T15:57:20;5.00;;;2.83;;
3867;SDS011;1949;48.152;11.528;2023-05-15T15:59:48;7.47;;;2.60;;
3867;SDS011;1949;48.152;11.528;2023-05-15T16:02:13;2.60;;;2.40;;
3867;SDS011;1949;48.152;11.528;2023-05-15T16:07:21;5.87;;;2.50;;
3867;SDS011;1949;48.152;11.528;2023-05-15T16:09:48;3.73;;;2.77;;
3867;SDS011;1949;48.152;11.528;2023-05-15T16:12:14;2.23;;;2.03;;
3867;SDS011;1949;48.152;11.528;2023-05-15T16:14:40;13.93;;;2.70;;
3867;SDS011;1949;48.152;11.528;2023-05-15T16:17:11;3.90;;;2.20;;
3867;SDS011;1949;48.152;11.528;2023-05-15T16:19:38;2.60;;;2.10;;
3867;SDS011;1949;48.152;11.528;2023-05-15T16:22:04;2.30;;;1.80;;
3867;SDS011;1949;48.152;11.528;2023-05-15T16:24:29;7.27;;;2.00;;
3867;SDS011;1949;48.152;11.528;2023-05-15T16:29:40;5.33;;;1.93;;
3867;SDS011;1949;48.152;11.528;2023-05-15T16:32:05;1.87;;;1.50;;
3867;SDS011;1949;48.152;11.528;2023-05-15T16:34:32;2.43;;;1.60;;
3867;SDS011;1949;48.152;11.528;2023-05-15T16:37:10;5.10;;;1.33;;
3867;SDS011;1949;48.152;11.528;2023-05-15T16:39:36;2.63;;;2.07;;
3867;SDS011;1949;48.152;11.528;2023-05-15T16:42:07;3.53;;;1.93;;
3867;SDS011;1949;48.152;11.528;2023-05-15T16:44:43;1.80;;;1.70;;
3867;SDS011;1949;48.152;11.528;2023-05-15T16:49:57;4.13;;;2.57;;
3867;SDS011;1949;48.152;11.528;2023-05-15T16:52:39;3.27;;;2.10;;
3867;SDS011;1949;48.152;11.528;2023-05-15T17:01:28;2.27;;;2.00;;
3867;SDS011;1949;48.152;11.528;2023-05-15T17:03:55;2.80;;;2.00;;
3867;SDS011;1949;48.152;11.528;2023-05-15T17:09:13;2.30;;;1.87;;
3867;SDS011;1949;48.152;11.528;2023-05-15T17:11:46;1.67;;;1.57;;
3867;SDS011;1949;48.152;11.528;2023-05-15T17:14:12;2.77;;;2.00;;
3867;SDS011;1949;48.152;11.528;2023-05-15T17:16:38;2.50;;;2.00;;
3867;SDS011;1949;48.152;11.528;2023-05-15T17:19:07;4.30;;;2.20;;
3867;SDS011;1949;48.152;11.528;2023-05-15T17:21:32;2.47;;;2.00;;
3867;SDS011;1949;48.152;11.528;2023-05-15T17:24:01;1.90;;;1.80;;
3867;SDS011;1949;48.152;11.528;2023-05-15T17:26:27;3.63;;;2.07;;
3867;SDS011;1949;48.152;11.528;2023-05-15T17:28:59;2.27;;;2.07;;
3867;SDS011;1949;48.152;11.528;2023-05-15T17:31:28;6.13;;;2.27;;
3867;SDS011;1949;48.152;11.528;2023-05-15T17:34:12;2.63;;;1.97;;
3867;SDS011;1949;48.152;11.528;2023-05-15T17:36:37;2.47;;;2.03;;
3867;SDS011;1949;48.152;11.528;2023-05-15T17:39:16;3.27;;;2.07;;
3867;SDS011;1949;48.152;11.528;2023-05-15T17:41:43;4.07;;;2.20;;
3867;SDS011;1949;48.152;11.528;2023-05-15T17:44:15;2.37;;;2.17;;
3867;SDS011;1949;48.152;11.528;2023-05-15T17:50:00;4.10;;;2.90;;
3867;SDS011;1949;48.152;11.528;2023-05-15T17:52:27;2.83;;;2.13;;
3867;SDS011;1949;48.152;11.528;2023-05-15T17:55:02;6.90;;;2.30;;
3867;SDS011;1949;48.152;11.528;2023-05-15T18:02:55;4.23;;;2.50;;
3867;SDS011;1949;48.152;11.528;2023-05-15T18:05:26;3.53;;;2.53;;
3867;SDS011;1949;48.152;11.528;2023-05-15T18:07:51;3.93;;;2.13;;
3867;SDS011;1949;48.152;11.528;2023-05-15T18:10:29;4.40;;;2.73;;